Time;durP1;ratioP1;P1;durP2;ratioP2;P2;SDS_P1;SDS_P2;PMS_P1;PMS_P2;Temp;Humidity;BMP_temperature;BMP_pressure;BME280_temperature;BME280_humidity;BME280_pressure;Samples;Min_cycle;Max_cycle;Signal;HPM_P1;HPM_P2
2022/09/22 00:01:00;;;;;;;6.72;3.15;;;12.50;99.90;;;;;;5072774;28;20031;-76
2022/09/22 00:03:35;;;;;;;4.10;2.40;;;12.50;99.90;;;;;;5072670;28;20072;-76
2022/09/22 00:06:10;;;;;;;4.38;2.30;;;12.40;99.90;;;;;;5075435;28;20021;-76
2022/09/22 00:08:39;;;;;;;4.85;2.90;;;12.40;99.90;;;;;;5074288;28;20021;-75
2022/09/22 00:11:12;;;;;;;3.10;2.72;;;12.40;99.90;;;;;;5078547;28;20087;-75
2022/09/22 00:13:40;;;;;;;5.88;2.88;;;12.40;99.90;;;;;;5064079;28;20033;-75
2022/09/22 00:16:11;;;;;;;7.07;3.22;;;12.40;99.90;;;;;;5061862;28;20117;-75
2022/09/22 00:18:37;;;;;;;6.05;3.10;;;12.40;99.90;;;;;;5065355;28;20043;-76
2022/09/22 00:21:11;;;;;;;3.85;2.83;;;12.40;99.90;;;;;;5062434;28;20078;-76
2022/09/22 00:23:39;;;;;;;10.13;3.55;;;12.30;99.90;;;;;;5068622;28;20017;-76
2022/09/22 00:26:08;;;;;;;9.98;3.20;;;12.30;99.90;;;;;;5073206;28;20021;-75
2022/09/22 00:28:34;;;;;;;4.75;2.50;;;12.30;99.90;;;;;;5078655;28;20032;-76
2022/09/22 00:31:16;;;;;;;5.57;2.75;;;12.20;99.90;;;;;;5075155;28;20500;-75
2022/09/22 00:33:43;;;;;;;10.18;3.40;;;12.20;99.90;;;;;;5073829;28;20051;-76
2022/09/22 00:36:10;;;;;;;6.00;3.20;;;12.10;99.90;;;;;;5073736;28;20109;-76
2022/09/22 00:38:37;;;;;;;6.35;2.70;;;12.10;99.90;;;;;;5076389;28;20017;-75
2022/09/22 00:41:04;;;;;;;6.82;3.03;;;12.20;99.90;;;;;;5074698;28;20025;-75
2022/09/22 00:43:35;;;;;;;7.93;2.92;;;12.20;99.90;;;;;;5078241;28;20088;-76
2022/09/22 00:46:16;;;;;;;3.55;2.67;;;12.10;99.90;;;;;;5075386;28;20082;-75
2022/09/22 00:48:53;;;;;;;5.00;2.92;;;12.10;99.90;;;;;;5060907;28;20035;-75
2022/09/22 00:51:23;;;;;;;5.40;2.58;;;12.10;99.90;;;;;;5063553;28;20027;-75
2022/09/22 00:53:49;;;;;;;4.68;2.42;;;12.10;99.90;;;;;;5062963;28;20167;-75
2022/09/22 00:56:42;;;;;;;5.07;2.70;;;12.10;99.90;;;;;;5065756;28;20530;-75
2022/09/22 00:59:13;;;;;;;9.43;3.42;;;12.10;99.90;;;;;;5062238;28;20041;-75
2022/09/22 01:01:39;;;;;;;9.73;4.90;;;12.00;99.90;;;;;;5073317;28;20489;-76
2022/09/22 01:04:06;;;;;;;4.43;2.65;;;12.00;99.90;;;;;;5070803;28;20027;-75
2022/09/22 01:06:33;;;;;;;8.40;3.10;;;11.90;99.90;;;;;;5069268;28;20078;-76
2022/09/22 01:09:00;;;;;;;6.15;3.08;;;11.90;99.90;;;;;;5073200;28;20012;-75
2022/09/22 01:11:28;;;;;;;6.70;2.75;;;11.90;99.90;;;;;;5074825;28;20027;-76
2022/09/22 01:14:12;;;;;;;4.90;2.85;;;11.80;99.90;;;;;;5073837;28;20043;-75
2022/09/22 01:16:56;;;;;;;6.15;3.42;;;11.80;99.90;;;;;;5074062;28;20481;-75
2022/09/22 01:19:34;;;;;;;6.88;3.00;;;11.80;99.90;;;;;;5079019;28;20036;-75
2022/09/22 01:22:21;;;;;;;7.85;3.92;;;11.80;99.90;;;;;;5075070;28;20029;-75
2022/09/22 01:24:52;;;;;;;7.18;3.28;;;11.80;99.90;;;;;;5075594;28;20013;-75
2022/09/22 01:27:33;;;;;;;3.97;2.50;;;11.80;99.90;;;;;;5077558;28;20025;-75
2022/09/22 01:30:18;;;;;;;7.88;3.13;;;11.80;99.90;;;;;;5089046;28;20038;-76
2022/09/22 01:33:10;;;;;;;4.72;3.38;;;11.70;99.90;;;;;;5060843;28;20025;-76
2022/09/22 01:35:36;;;;;;;6.65;2.95;;;11.70;99.90;;;;;;5067694;28;20017;-76
2022/09/22 01:38:29;;;;;;;7.03;3.42;;;11.60;99.90;;;;;;5069127;28;20033;-75
2022/09/22 01:41:39;;;;;;;8.38;3.78;;;11.70;99.90;;;;;;5070627;28;20032;-75
2022/09/22 01:44:35;;;;;;;7.20;3.33;;;11.70;99.90;;;;;;5065350;28;20060;-75
2022/09/22 01:47:18;;;;;;;6.07;3.03;;;11.60;99.90;;;;;;5066773;28;20023;-75
2022/09/22 01:50:06;;;;;;;3.97;3.00;;;11.60;99.90;;;;;;5072754;28;20025;-75
2022/09/22 01:52:34;;;;;;;8.57;3.42;;;11.50;99.90;;;;;;5075045;28;20048;-75
2022/09/22 01:55:06;;;;;;;5.95;3.60;;;11.50;99.90;;;;;;5074972;28;20392;-75
2022/09/22 01:58:02;;;;;;;8.50;3.65;;;11.50;99.90;;;;;;5074069;28;20392;-75
2022/09/22 02:00:28;;;;;;;5.20;3.42;;;11.50;99.90;;;;;;5061927;28;20104;-75
2022/09/22 02:03:18;;;;;;;5.00;3.08;;;11.50;99.90;;;;;;5059253;28;20478;-75
2022/09/22 02:05:52;;;;;;;7.82;3.70;;;11.50;99.90;;;;;;5062180;28;20029;-75
2022/09/22 02:08:38;;;;;;;5.30;3.38;;;11.50;99.90;;;;;;5061108;28;20099;-75
2022/09/22 02:11:14;;;;;;;6.47;3.38;;;11.40;99.90;;;;;;5074866;28;20024;-75
2022/09/22 02:13:41;;;;;;;6.68;3.25;;;11.40;99.90;;;;;;5068316;28;20048;-76
2022/09/22 02:16:08;;;;;;;5.78;3.22;;;11.30;99.90;;;;;;5065175;28;20405;-76
2022/09/22 02:18:43;;;;;;;6.47;3.42;;;11.30;99.90;;;;;;5067469;28;20021;-76
2022/09/22 02:21:10;;;;;;;4.93;3.25;;;11.30;99.90;;;;;;5068559;28;20021;-75
2022/09/22 02:23:36;;;;;;;4.43;3.40;;;11.30;99.90;;;;;;5071047;28;20021;-76
2022/09/22 02:26:04;;;;;;;9.32;3.67;;;11.20;99.90;;;;;;5076304;28;20032;-75
2022/09/22 02:28:32;;;;;;;10.45;3.88;;;11.30;99.90;;;;;;5074779;28;20016;-76
2022/09/22 02:31:00;;;;;;;7.65;3.72;;;11.30;99.90;;;;;;5075556;28;20040;-75
2022/09/22 02:33:28;;;;;;;9.65;3.90;;;11.30;99.90;;;;;;5071836;28;20016;-76
2022/09/22 02:36:03;;;;;;;8.82;3.97;;;11.30;99.90;;;;;;5076793;28;20041;-75
2022/09/22 02:38:56;;;;;;;7.03;4.03;;;11.20;99.90;;;;;;5073870;28;20039;-76
2022/09/22 02:41:44;;;;;;;3.95;3.30;;;11.20;99.90;;;;;;5073646;28;20043;-75
2022/09/22 02:44:44;;;;;;;7.10;3.50;;;11.10;99.90;;;;;;5071554;28;20019;-75
2022/09/22 02:47:23;;;;;;;12.15;3.92;;;11.10;99.90;;;;;;5070493;28;20074;-75
2022/09/22 02:49:50;;;;;;;8.52;3.78;;;11.10;99.90;;;;;;5074050;28;20056;-75
2022/09/22 02:52:21;;;;;;;16.33;4.45;;;11.00;99.90;;;;;;5075097;28;20508;-76
2022/09/22 02:54:47;;;;;;;8.27;3.92;;;11.00;99.90;;;;;;5077129;28;20044;-75
2022/09/22 02:57:13;;;;;;;8.85;3.70;;;10.90;99.90;;;;;;5076595;28;20024;-75
2022/09/22 02:59:38;;;;;;;4.43;3.60;;;11.00;99.90;;;;;;5058485;28;20044;-75
2022/09/22 03:02:04;;;;;;;5.90;3.70;;;11.00;99.90;;;;;;5060035;28;20033;-75
2022/09/22 03:04:30;;;;;;;7.63;3.60;;;11.00;99.90;;;;;;5061733;28;20017;-75
2022/09/22 03:06:56;;;;;;;14.95;3.83;;;11.00;99.90;;;;;;5059525;28;20048;-75
2022/09/22 03:09:22;;;;;;;4.90;3.58;;;11.00;99.90;;;;;;5072794;28;20021;-75
2022/09/22 03:11:48;;;;;;;10.82;3.60;;;11.00;99.90;;;;;;5062758;28;20025;-75
2022/09/22 03:14:13;;;;;;;10.13;3.88;;;11.00;99.90;;;;;;5069148;28;20547;-75
2022/09/22 03:16:39;;;;;;;5.75;3.58;;;11.00;99.90;;;;;;5067778;28;20151;-75
2022/09/22 03:19:05;;;;;;;8.98;3.50;;;11.00;99.90;;;;;;5072307;28;20021;-75
2022/09/22 03:21:31;;;;;;;6.60;3.00;;;11.00;99.90;;;;;;5069269;28;20427;-75
2022/09/22 03:23:57;;;;;;;6.65;3.60;;;10.90;99.90;;;;;;5069854;28;20017;-75
2022/09/22 03:26:22;;;;;;;4.82;3.67;;;10.90;99.90;;;;;;5062905;28;20025;-76
2022/09/22 03:28:48;;;;;;;4.20;3.20;;;10.90;99.90;;;;;;5059700;28;20075;-76
2022/09/22 03:31:14;;;;;;;10.77;3.50;;;10.90;99.90;;;;;;5059349;28;20550;-75
2022/09/22 03:33:40;;;;;;;7.65;3.42;;;10.90;99.90;;;;;;5073384;28;20052;-75
2022/09/22 03:36:06;;;;;;;6.53;3.65;;;10.90;99.90;;;;;;5062393;28;20059;-75
2022/09/22 03:38:32;;;;;;;5.82;3.05;;;10.90;99.90;;;;;;5067835;28;20024;-75
2022/09/22 03:40:58;;;;;;;11.32;3.92;;;10.90;99.90;;;;;;5063865;28;20021;-76
2022/09/22 03:43:24;;;;;;;8.98;3.75;;;10.90;99.90;;;;;;5069554;28;20043;-75
2022/09/22 03:45:57;;;;;;;3.85;3.40;;;10.80;99.90;;;;;;5066836;28;20104;-75
2022/09/22 03:48:24;;;;;;;8.90;3.42;;;10.80;99.90;;;;;;5072698;28;20481;-75
2022/09/22 03:50:50;;;;;;;6.93;3.20;;;10.70;99.90;;;;;;5072710;28;20029;-75
2022/09/22 03:53:16;;;;;;;7.90;3.85;;;10.70;99.90;;;;;;5073636;28;20086;-75
2022/09/22 03:55:41;;;;;;;5.50;3.72;;;10.70;99.90;;;;;;5075489;28;20028;-76
2022/09/22 03:58:07;;;;;;;6.15;3.55;;;10.60;99.90;;;;;;5067630;28;20447;-75
2022/09/22 04:00:33;;;;;;;7.15;3.47;;;10.50;99.90;;;;;;5059070;28;20032;-76
2022/09/22 04:02:59;;;;;;;10.02;3.67;;;10.50;99.90;;;;;;5058800;28;20025;-76
2022/09/22 04:05:25;;;;;;;6.13;3.75;;;10.50;99.90;;;;;;5060907;28;20025;-75
2022/09/22 04:07:51;;;;;;;6.82;3.97;;;10.50;99.90;;;;;;5062307;28;20063;-75
2022/09/22 04:10:18;;;;;;;7.20;4.00;;;10.40;99.90;;;;;;5062911;28;20068;-76
2022/09/22 04:12:44;;;;;;;6.45;4.63;;;10.40;99.90;;;;;;5066319;28;20101;-75
2022/09/22 04:15:10;;;;;;;6.50;3.90;;;10.40;99.90;;;;;;5065567;28;20021;-75
2022/09/22 04:17:36;;;;;;;8.20;4.20;;;10.40;99.90;;;;;;5070492;28;20026;-75
2022/09/22 04:20:04;;;;;;;5.30;3.28;;;10.40;99.90;;;;;;5067007;28;20059;-75
2022/09/22 04:22:30;;;;;;;9.32;4.68;;;10.40;99.90;;;;;;5072436;28;20020;-76
2022/09/22 04:24:56;;;;;;;4.78;3.95;;;10.40;99.90;;;;;;5072275;28;20492;-75
2022/09/22 04:27:23;;;;;;;9.75;4.07;;;10.30;99.90;;;;;;5074101;28;20031;-75
2022/09/22 04:29:49;;;;;;;6.03;3.88;;;10.30;99.90;;;;;;5074037;28;20025;-75
2022/09/22 04:32:16;;;;;;;15.30;4.18;;;10.30;99.90;;;;;;5056185;28;20029;-75
2022/09/22 04:34:42;;;;;;;8.55;4.13;;;10.30;99.90;;;;;;5058411;28;20032;-75
2022/09/22 04:37:09;;;;;;;9.18;4.32;;;10.30;99.90;;;;;;5058686;28;20045;-75
2022/09/22 04:39:35;;;;;;;10.77;4.53;;;10.30;99.90;;;;;;5060570;28;20108;-76
2022/09/22 04:42:02;;;;;;;6.30;4.82;;;10.30;99.90;;;;;;5076223;28;20045;-75
2022/09/22 04:44:28;;;;;;;8.75;4.32;;;10.20;99.90;;;;;;5075795;28;20021;-75
2022/09/22 04:46:56;;;;;;;7.10;3.90;;;10.20;99.90;;;;;;5079442;28;20070;-75
2022/09/22 04:49:22;;;;;;;7.05;4.60;;;10.20;99.90;;;;;;5072308;28;20120;-76
2022/09/22 04:51:48;;;;;;;12.25;4.18;;;10.20;99.90;;;;;;5071832;28;20024;-75
2022/09/22 04:54:14;;;;;;;4.35;3.50;;;10.20;99.90;;;;;;5071692;28;20071;-75
2022/09/22 04:56:41;;;;;;;9.00;4.20;;;10.20;99.90;;;;;;5076242;28;20024;-75
2022/09/22 04:59:07;;;;;;;9.63;4.03;;;10.20;99.90;;;;;;5075961;28;20024;-75
2022/09/22 05:01:33;;;;;;;5.72;3.45;;;10.20;99.90;;;;;;5077166;28;20027;-75
2022/09/22 05:03:58;;;;;;;6.45;3.42;;;10.10;99.90;;;;;;5076309;28;20480;-75
2022/09/22 05:06:25;;;;;;;7.30;4.13;;;10.10;99.90;;;;;;5058830;28;20582;-75
2022/09/22 05:08:51;;;;;;;8.07;3.92;;;10.10;99.90;;;;;;5063021;28;20032;-75
2022/09/22 05:11:23;;;;;;;12.63;3.95;;;10.10;99.90;;;;;;5062248;28;20025;-75
2022/09/22 05:13:49;;;;;;;7.93;4.38;;;10.10;99.90;;;;;;5066171;28;20515;-76
2022/09/22 05:16:16;;;;;;;6.53;4.38;;;10.00;99.90;;;;;;5071767;28;20025;-76
2022/09/22 05:18:42;;;;;;;5.85;3.75;;;10.00;99.90;;;;;;5069582;28;20043;-75
2022/09/22 05:21:08;;;;;;;5.78;3.90;;;10.00;99.90;;;;;;5075950;28;20032;-76
2022/09/22 05:23:34;;;;;;;9.52;3.47;;;10.00;99.90;;;;;;5075380;28;20024;-75
2022/09/22 05:26:00;;;;;;;16.42;4.10;;;10.00;99.90;;;;;;5078808;28;20024;-75
2022/09/22 05:28:26;;;;;;;8.35;3.75;;;10.00;99.90;;;;;;5070416;28;20119;-76
2022/09/22 05:30:52;;;;;;;6.55;3.95;;;10.00;99.90;;;;;;5071471;28;20113;-75
2022/09/22 05:33:18;;;;;;;6.47;4.00;;;9.90;99.90;;;;;;5072750;28;20107;-75
2022/09/22 05:35:44;;;;;;;10.70;3.85;;;9.90;99.90;;;;;;5073690;28;20028;-76
2022/09/22 05:38:11;;;;;;;5.10;4.13;;;9.90;99.90;;;;;;5076097;28;20115;-75
2022/09/22 05:40:36;;;;;;;7.65;4.03;;;9.90;99.90;;;;;;5077520;28;20028;-76
2022/09/22 05:43:02;;;;;;;7.85;4.30;;;9.90;99.90;;;;;;5073750;28;20388;-75
2022/09/22 05:45:28;;;;;;;9.35;3.80;;;9.90;99.90;;;;;;5076216;28;20039;-75
2022/09/22 05:47:54;;;;;;;9.55;5.20;;;9.80;99.90;;;;;;5077029;28;20017;-75
2022/09/22 05:50:22;;;;;;;7.72;4.00;;;9.80;99.90;;;;;;5076465;28;20020;-75
2022/09/22 05:52:48;;;;;;;6.63;4.20;;;9.80;99.90;;;;;;5074046;28;20493;-75
2022/09/22 05:55:14;;;;;;;6.18;3.55;;;9.80;99.90;;;;;;5066883;28;20029;-75
2022/09/22 05:57:40;;;;;;;10.93;4.57;;;9.80;99.90;;;;;;5069022;28;20086;-76
2022/09/22 06:00:07;;;;;;;12.65;4.20;;;9.90;99.90;;;;;;5072516;28;20096;-75
2022/09/22 06:02:33;;;;;;;6.72;4.35;;;9.90;99.90;;;;;;5074449;28;20029;-76
2022/09/22 06:04:59;;;;;;;8.32;3.95;;;10.00;99.90;;;;;;5074585;28;20138;-75
2022/09/22 06:07:25;;;;;;;6.38;4.22;;;10.00;99.90;;;;;;5072367;28;20024;-76
2022/09/22 06:09:51;;;;;;;6.18;4.18;;;10.10;99.90;;;;;;5075221;28;20028;-76
2022/09/22 06:12:17;;;;;;;8.13;4.45;;;10.10;99.90;;;;;;5075505;28;20032;-76
2022/09/22 06:14:43;;;;;;;7.20;3.75;;;10.20;99.90;;;;;;5066201;28;20029;-76
2022/09/22 06:17:10;;;;;;;15.00;4.45;;;10.30;99.90;;;;;;5063061;28;20031;-76
2022/09/22 06:19:38;;;;;;;10.80;4.50;;;10.30;99.90;;;;;;5068359;28;20024;-76
2022/09/22 06:22:04;;;;;;;7.53;4.53;;;10.40;99.90;;;;;;5066133;28;20112;-76
2022/09/22 06:24:29;;;;;;;7.53;4.30;;;10.50;99.90;;;;;;5065365;28;20012;-76
2022/09/22 06:26:55;;;;;;;10.85;4.65;;;10.50;99.90;;;;;;5077643;28;20025;-76
2022/09/22 06:29:21;;;;;;;7.55;4.57;;;10.60;99.90;;;;;;5076997;28;20032;-76
2022/09/22 06:31:48;;;;;;;11.38;4.90;;;10.60;99.90;;;;;;5065386;28;20024;-76
2022/09/22 06:34:14;;;;;;;11.05;3.95;;;10.70;99.90;;;;;;5071965;28;20039;-76
2022/09/22 06:36:44;;;;;;;12.23;5.15;;;10.70;99.90;;;;;;5090711;28;20060;-76
2022/09/22 06:39:10;;;;;;;12.15;4.93;;;10.80;99.90;;;;;;5077448;28;20028;-76
2022/09/22 06:41:36;;;;;;;15.70;4.32;;;10.90;99.90;;;;;;5064452;28;20024;-76
2022/09/22 06:44:04;;;;;;;9.32;3.95;;;11.00;99.90;;;;;;5067247;28;20039;-75
2022/09/22 06:46:32;;;;;;;7.22;4.47;;;11.10;99.90;;;;;;5063831;28;20064;-76
2022/09/22 06:48:59;;;;;;;7.00;4.53;;;11.20;99.90;;;;;;5060372;28;20074;-75
2022/09/22 06:51:27;;;;;;;8.50;4.38;;;11.30;99.90;;;;;;5062559;28;20456;-75
2022/09/22 06:53:56;;;;;;;7.40;4.25;;;11.40;99.90;;;;;;5062676;28;20087;-76
2022/09/22 06:56:24;;;;;;;10.68;4.28;;;11.50;99.90;;;;;;5071043;28;20032;-76
2022/09/22 06:58:51;;;;;;;7.47;3.80;;;11.60;99.90;;;;;;5071254;28;20046;-76
2022/09/22 07:01:18;;;;;;;9.38;4.60;;;11.70;99.90;;;;;;5073286;28;20060;-76
2022/09/22 07:03:45;;;;;;;8.30;3.90;;;11.80;99.90;;;;;;5070062;28;20020;-76
2022/09/22 07:06:16;;;;;;;10.00;4.60;;;11.90;99.90;;;;;;5074618;28;20047;-76
2022/09/22 07:08:47;;;;;;;14.90;4.20;;;11.90;99.90;;;;;;5073915;28;20019;-76
2022/09/22 07:11:16;;;;;;;8.75;4.13;;;12.10;99.90;;;;;;5076541;28;20021;-76
2022/09/22 07:13:44;;;;;;;7.28;4.20;;;12.30;99.90;;;;;;5074620;28;20028;-76
2022/09/22 07:16:16;;;;;;;12.10;4.72;;;12.40;99.90;;;;;;5058224;28;20448;-76
2022/09/22 07:18:46;;;;;;;9.95;4.10;;;12.50;99.90;;;;;;5061931;28;20012;-76
2022/09/22 07:21:15;;;;;;;13.27;5.05;;;12.70;99.90;;;;;;5060403;28;20025;-76
2022/09/22 07:23:43;;;;;;;7.82;3.85;;;12.80;99.90;;;;;;5065942;28;20420;-76
2022/09/22 07:26:14;;;;;;;13.70;5.30;;;13.00;99.90;;;;;;5067012;28;20516;-76
2022/09/22 07:28:40;;;;;;;11.70;4.63;;;13.10;99.90;;;;;;5069038;28;20025;-75
2022/09/22 07:31:09;;;;;;;9.80;4.03;;;13.30;99.90;;;;;;5063319;28;20108;-76
2022/09/22 07:33:36;;;;;;;15.98;4.45;;;13.40;99.90;;;;;;5067825;28;20059;-75
2022/09/22 07:36:12;;;;;;;23.75;4.07;;;13.60;99.90;;;;;;5075101;28;20071;-75
2022/09/22 07:38:40;;;;;;;12.50;5.18;;;13.70;99.90;;;;;;5076703;28;20017;-75
2022/09/22 07:41:10;;;;;;;21.05;4.25;;;13.90;99.90;;;;;;5071326;28;20017;-75
2022/09/22 07:43:37;;;;;;;13.55;4.88;;;13.90;99.90;;;;;;5071904;28;20103;-75
2022/09/22 07:46:04;;;;;;;13.65;4.50;;;14.10;99.90;;;;;;5065525;28;20082;-76
2022/09/22 07:48:45;;;;;;;11.63;3.38;;;14.20;99.90;;;;;;5060469;28;20028;-76
2022/09/22 07:51:22;;;;;;;8.85;3.40;;;14.30;99.90;;;;;;5065724;28;20029;-76
2022/09/22 07:54:01;;;;;;;5.50;3.83;;;14.50;99.90;;;;;;5063068;28;20025;-76
2022/09/22 07:56:29;;;;;;;8.63;3.90;;;14.60;99.90;;;;;;5069698;28;20077;-75
2022/09/22 07:58:54;;;;;;;9.75;3.20;;;14.80;99.90;;;;;;5065561;28;20017;-76
2022/09/22 08:01:31;;;;;;;13.98;3.83;;;14.90;99.90;;;;;;5071740;28;20035;-76
2022/09/22 08:03:58;;;;;;;10.20;3.75;;;15.10;99.90;;;;;;5068950;28;20477;-76
2022/09/22 08:06:24;;;;;;;10.68;3.72;;;15.20;99.90;;;;;;5073788;28;20112;-76
2022/09/22 08:08:54;;;;;;;11.40;4.10;;;15.30;99.90;;;;;;5072410;28;20048;-76
2022/09/22 08:11:24;;;;;;;7.15;4.03;;;15.30;99.90;;;;;;5075128;28;20036;-76
2022/09/22 08:13:58;;;;;;;15.68;3.72;;;15.40;99.90;;;;;;5060826;28;20047;-75
2022/09/22 08:16:27;;;;;;;12.90;3.20;;;15.60;99.90;;;;;;5059584;28;20047;-76
2022/09/22 08:18:59;;;;;;;8.57;3.20;;;15.70;99.90;;;;;;5066084;28;20103;-76
2022/09/22 08:21:29;;;;;;;7.65;4.00;;;15.80;99.90;;;;;;5071093;28;20028;-77
2022/09/22 08:23:55;;;;;;;8.75;3.58;;;15.90;99.90;;;;;;5075120;28;20017;-77
2022/09/22 08:26:21;;;;;;;9.07;3.33;;;15.80;99.90;;;;;;5072453;28;20025;-78
2022/09/22 08:28:55;;;;;;;6.90;3.20;;;15.90;99.90;;;;;;5074525;28;20065;-78
2022/09/22 08:31:22;;;;;;;8.07;3.15;;;16.10;99.90;;;;;;5068619;28;20481;-78
2022/09/22 08:33:50;;;;;;;14.13;4.18;;;16.20;99.90;;;;;;5064176;28;20028;-76
2022/09/22 08:36:17;;;;;;;5.07;2.97;;;16.30;99.90;;;;;;5065180;28;20053;-76
2022/09/22 08:38:48;;;;;;;8.25;3.40;;;16.40;99.90;;;;;;5076555;28;20009;-76
2022/09/22 08:41:37;;;;;;;16.95;3.15;;;16.50;99.90;;;;;;5068727;28;20024;-76
2022/09/22 08:44:09;;;;;;;8.73;3.75;;;16.60;99.90;;;;;;5068490;28;20048;-78
2022/09/22 08:46:38;;;;;;;8.43;2.83;;;16.70;99.90;;;;;;5074801;28;20048;-77
2022/09/22 08:52:15;;;;;;;11.82;3.45;;;16.90;99.90;;;;;;5074191;28;20035;-76
2022/09/22 08:54:43;;;;;;;7.53;2.85;;;16.90;99.90;;;;;;5079895;28;20031;-75
2022/09/22 08:57:21;;;;;;;6.82;2.97;;;17.00;99.90;;;;;;5079539;28;20020;-75
2022/09/22 09:00:09;;;;;;;6.63;3.00;;;17.00;99.90;;;;;;5064769;28;20013;-76
2022/09/22 09:02:41;;;;;;;12.23;3.10;;;17.00;99.90;;;;;;5078826;28;20020;-75
2022/09/22 09:06:02;;;;;;;7.35;2.80;;;17.10;99.90;;;;;;5078470;28;20056;-77
2022/09/22 09:09:02;;;;;;;9.82;2.58;;;17.30;99.90;;;;;;5035618;28;20061;-75
2022/09/22 09:11:53;;;;;;;14.27;2.70;;;17.60;99.90;;;;;;5070209;28;20063;-76
2022/09/22 09:14:58;;;;;;;9.02;2.58;;;17.80;99.90;;;;;;5065323;28;20078;-75
2022/09/22 09:17:29;;;;;;;3.83;2.25;;;17.90;99.90;;;;;;5061777;28;20029;-76
2022/09/22 09:20:04;;;;;;;3.50;2.30;;;18.00;99.90;;;;;;5065760;28;20036;-77
2022/09/22 09:22:56;;;;;;;5.07;2.35;;;18.10;99.90;;;;;;5069973;28;20017;-77
2022/09/22 09:25:24;;;;;;;11.13;3.65;;;18.30;99.90;;;;;;5075314;28;20044;-77
2022/09/22 09:27:57;;;;;;;6.82;2.72;;;18.40;99.90;;;;;;5073703;28;20116;-77
2022/09/22 09:30:23;;;;;;;4.72;2.83;;;18.60;99.90;;;;;;5066281;28;20024;-76
2022/09/22 09:33:03;;;;;;;8.27;2.67;;;18.70;99.90;;;;;;5074247;28;20024;-75
2022/09/22 09:35:41;;;;;;;8.68;2.72;;;18.80;99.90;;;;;;5076483;28;20024;-75
2022/09/22 09:38:13;;;;;;;6.38;2.80;;;18.90;99.90;;;;;;5076623;28;20051;-75
2022/09/22 09:40:39;;;;;;;8.43;2.50;;;19.00;99.90;;;;;;5068091;28;20043;-75
2022/09/22 09:43:06;;;;;;;4.82;2.35;;;18.90;99.90;;;;;;5061044;28;20492;-74
2022/09/22 09:46:10;;;;;;;7.97;2.20;;;19.10;99.90;;;;;;5060630;28;20032;-75
2022/09/22 09:49:01;;;;;;;7.72;2.28;;;19.20;99.90;;;;;;5065993;28;20032;-76
2022/09/22 09:51:28;;;;;;;4.07;2.10;;;19.40;99.90;;;;;;5062717;28;20028;-75
2022/09/22 09:53:56;;;;;;;6.25;2.55;;;19.50;99.90;;;;;;5062642;28;20021;-75
2022/09/22 09:56:27;;;;;;;4.55;2.30;;;19.60;99.90;;;;;;5064711;28;20102;-75
2022/09/22 10:01:45;;;;;;;7.00;2.10;;;19.80;99.90;;;;;;5075805;28;20468;-75
2022/09/22 10:04:29;;;;;;;9.10;2.00;;;19.90;99.90;;;;;;5072546;28;20021;-75
2022/09/22 10:07:13;;;;;;;9.75;3.03;;;20.00;99.90;;;;;;5072987;28;20025;-75
2022/09/22 10:09:39;;;;;;;6.95;2.17;;;20.10;99.90;;;;;;5076614;28;20112;-75
2022/09/22 10:12:18;;;;;;;4.50;2.20;;;20.20;99.90;;;;;;5072590;28;20028;-75
2022/09/22 10:14:54;;;;;;;8.48;2.75;;;20.20;99.90;;;;;;5056889;28;20039;-76
2022/09/22 10:17:37;;;;;;;6.90;2.20;;;20.20;99.90;;;;;;5059675;28;20021;-76
2022/09/22 10:20:30;;;;;;;12.95;2.42;;;20.20;99.90;;;;;;5062567;28;20099;-75
2022/09/22 10:23:21;;;;;;;6.72;2.20;;;20.20;99.90;;;;;;5072614;28;20035;-75
2022/09/22 10:25:49;;;;;;;14.00;2.83;;;20.40;99.90;;;;;;5061657;28;20020;-75
2022/09/22 10:28:21;;;;;;;4.25;2.05;;;20.40;99.90;;;;;;5066252;28;20029;-75
2022/09/22 10:31:26;;;;;;;7.97;2.28;;;20.60;99.60;;;;;;5068708;28;20024;-75
2022/09/22 10:33:55;;;;;;;5.60;2.20;;;20.60;99.90;;;;;;5066467;28;20024;-75
2022/09/22 10:36:24;;;;;;;6.68;2.25;;;20.60;99.60;;;;;;5084231;28;20053;-74
2022/09/22 10:38:52;;;;;;;7.63;2.45;;;20.60;99.90;;;;;;5072471;28;20035;-75
2022/09/22 10:41:29;;;;;;;4.60;2.03;;;20.60;99.80;;;;;;5070807;28;20433;-75
2022/09/22 10:44:00;;;;;;;3.60;2.10;;;20.60;99.90;;;;;;5075669;28;20028;-75
2022/09/22 10:46:51;;;;;;;5.55;2.08;;;20.70;99.70;;;;;;5074375;28;20028;-76
2022/09/22 10:49:43;;;;;;;5.13;2.53;;;20.90;99.10;;;;;;5061816;28;20089;-75
2022/09/22 10:52:16;;;;;;;8.95;2.17;;;21.00;99.90;;;;;;5058518;28;20023;-75
2022/09/22 10:55:15;;;;;;;6.45;2.08;;;21.10;99.90;;;;;;5060701;28;20021;-75
2022/09/22 10:57:53;;;;;;;5.70;2.22;;;21.10;99.90;;;;;;5064224;28;20059;-75
2022/09/22 11:00:20;;;;;;;6.45;2.30;;;21.10;99.70;;;;;;5072783;28;20491;-75
2022/09/22 11:03:01;;;;;;;6.53;2.40;;;21.10;99.90;;;;;;5073060;28;20024;-75
2022/09/22 11:14:28;;;;;;;4.32;1.80;;;21.30;99.70;;;;;;5071228;28;20047;-75
2022/09/22 11:17:30;;;;;;;7.63;2.35;;;21.40;99.20;;;;;;5060888;28;20029;-74
2022/09/22 11:20:35;;;;;;;5.72;1.92;;;21.40;99.80;;;;;;5061000;28;20512;-75
2022/09/22 11:23:32;;;;;;;4.50;2.00;;;21.50;99.90;;;;;;5066996;28;20020;-74
2022/09/22 11:26:17;;;;;;;5.80;2.00;;;21.60;99.90;;;;;;5067262;28;20024;-74
2022/09/22 11:29:10;;;;;;;10.10;2.33;;;21.70;99.60;;;;;;5068453;28;20024;-75
2022/09/22 11:32:09;;;;;;;6.20;2.10;;;21.70;99.90;;;;;;5071197;28;20025;-74
2022/09/22 11:34:35;;;;;;;8.40;2.10;;;21.80;99.90;;;;;;5066759;28;20100;-75
2022/09/22 11:37:39;;;;;;;6.78;1.75;;;22.00;99.70;;;;;;5072476;28;20080;-74
2022/09/22 11:40:26;;;;;;;9.75;2.10;;;22.00;98.90;;;;;;5073926;28;20032;-75
2022/09/22 11:43:10;;;;;;;9.30;2.33;;;22.00;98.80;;;;;;5072311;28;20020;-75
2022/09/22 11:46:05;;;;;;;5.00;2.08;;;22.10;98.60;;;;;;5074645;28;20109;-75
2022/09/22 11:49:03;;;;;;;11.45;2.80;;;22.10;99.20;;;;;;5064054;28;20039;-75
2022/09/22 11:51:50;;;;;;;4.65;2.22;;;22.20;98.70;;;;;;5067446;28;20116;-75
2022/09/22 11:54:46;;;;;;;6.13;2.13;;;22.20;99.40;;;;;;5068884;28;20035;-75
2022/09/22 11:57:16;;;;;;;5.85;1.80;;;22.30;97.90;;;;;;5071393;28;20107;-75
2022/09/22 11:59:58;;;;;;;7.68;2.25;;;22.30;97.00;;;;;;5069464;28;20025;-75
2022/09/22 12:02:46;;;;;;;6.00;2.15;;;22.30;97.90;;;;;;5077282;28;20036;-75
2022/09/22 12:05:19;;;;;;;14.10;2.65;;;22.40;97.30;;;;;;5076425;28;20036;-76
2022/09/22 12:07:56;;;;;;;6.47;2.05;;;22.40;97.30;;;;;;5078825;28;20024;-75
2022/09/22 12:10:35;;;;;;;4.72;1.73;;;22.50;96.50;;;;;;5077945;28;20158;-75
2022/09/22 12:13:09;;;;;;;6.88;2.00;;;22.60;96.90;;;;;;5061968;28;20427;-75
2022/09/22 12:15:54;;;;;;;6.03;2.25;;;22.50;96.70;;;;;;5064548;28;20484;-74
2022/09/22 12:18:31;;;;;;;4.57;1.90;;;22.50;96.40;;;;;;5080080;28;20021;-75
2022/09/22 12:21:18;;;;;;;3.78;1.85;;;22.70;97.00;;;;;;5076631;28;20028;-75
2022/09/22 12:23:49;;;;;;;5.90;1.67;;;22.80;96.90;;;;;;5063258;28;20013;-75
2022/09/22 12:26:27;;;;;;;5.90;1.80;;;22.90;96.40;;;;;;5074251;28;20385;-75
2022/09/22 12:28:54;;;;;;;5.78;2.20;;;22.90;96.40;;;;;;5068461;28;20024;-75
2022/09/22 12:31:20;;;;;;;7.25;2.30;;;23.00;96.10;;;;;;5074553;28;20036;-75
2022/09/22 12:33:54;;;;;;;6.57;1.70;;;23.10;95.50;;;;;;5079856;28;20016;-77
2022/09/22 12:36:35;;;;;;;6.57;2.00;;;23.20;95.40;;;;;;5078136;28;20049;-77
2022/09/22 12:39:21;;;;;;;2.28;1.60;;;23.30;94.80;;;;;;5069169;28;20037;-77
2022/09/22 12:42:00;;;;;;;3.47;1.60;;;23.40;95.40;;;;;;5060745;28;20033;-78
2022/09/22 12:44:37;;;;;;;3.63;1.77;;;23.50;95.20;;;;;;5064384;28;20032;-77
2022/09/22 12:47:40;;;;;;;5.20;1.77;;;23.60;93.20;;;;;;5075086;28;20029;-77
2022/09/22 12:50:26;;;;;;;6.93;1.88;;;23.60;93.70;;;;;;5036982;28;20072;-77
2022/09/22 12:52:52;;;;;;;8.70;1.98;;;23.60;93.60;;;;;;5072661;28;20040;-77
2022/09/22 12:55:27;;;;;;;9.10;2.03;;;23.60;93.30;;;;;;5066262;28;20098;-77
2022/09/22 12:57:56;;;;;;;4.78;2.05;;;23.70;91.90;;;;;;5072674;28;20021;-77
2022/09/22 13:00:34;;;;;;;5.07;1.80;;;23.70;92.00;;;;;;5060611;28;20898;-78
2022/09/22 13:03:20;;;;;;;5.63;2.20;;;23.80;91.00;;;;;;5077771;28;20023;-77
2022/09/22 13:05:46;;;;;;;7.30;1.77;;;23.80;90.40;;;;;;5076993;28;20060;-77
2022/09/22 13:08:44;;;;;;;6.28;1.83;;;23.90;90.00;;;;;;5064086;28;20032;-77
2022/09/22 13:11:10;;;;;;;5.47;1.80;;;23.90;90.50;;;;;;5070905;28;20060;-77
2022/09/22 13:13:38;;;;;;;5.28;2.15;;;24.00;90.40;;;;;;5075823;28;20036;-77
2022/09/22 13:16:24;;;;;;;3.10;1.55;;;24.00;91.10;;;;;;5071826;28;20032;-77
2022/09/22 13:18:54;;;;;;;4.00;1.48;;;24.20;91.20;;;;;;5076427;28;20033;-77
2022/09/22 13:21:26;;;;;;;8.75;1.77;;;24.20;88.90;;;;;;5072576;28;20052;-77
2022/09/22 13:23:57;;;;;;;5.47;1.90;;;24.20;88.60;;;;;;5075389;28;20029;-77
2022/09/22 13:26:37;;;;;;;4.25;1.70;;;24.00;88.20;;;;;;5075803;28;20076;-77
2022/09/22 13:29:20;;;;;;;6.65;2.03;;;24.10;90.00;;;;;;5075141;28;20017;-77
2022/09/22 13:31:51;;;;;;;9.50;1.90;;;24.20;90.10;;;;;;5077903;28;20101;-77